sensor_id;sensor_type;location;lat;lon;timestamp;P1;durP1;ratioP1;P2;durP2;ratioP2
80245;SDS011;69558;39.208;-77.226;2023-07-24T00:02:17;2.40;;;1.15;;
80245;SDS011;69558;39.208;-77.226;2023-07-24T00:04:43;3.15;;;1.95;;
80245;SDS011;69558;39.208;-77.226;2023-07-24T00:07:10;2.85;;;1.15;;
80245;SDS011;69558;39.208;-77.226;2023-07-24T00:09:37;3.38;;;2.08;;
80245;SDS011;69558;39.208;-77.226;2023-07-24T00:12:03;2.53;;;1.27;;
80245;SDS011;69558;39.208;-77.226;2023-07-24T00:14:29;3.33;;;2.30;;
80245;SDS011;69558;39.208;-77.226;2023-07-24T00:16:56;2.75;;;1.30;;
80245;SDS011;69558;39.208;-77.226;2023-07-24T00:19:22;2.95;;;1.33;;
80245;SDS011;69558;39.208;-77.226;2023-07-24T00:21:48;3.30;;;2.15;;
80245;SDS011;69558;39.208;-77.226;2023-07-24T00:24:14;3.13;;;1.88;;
80245;SDS011;69558;39.208;-77.226;2023-07-24T00:26:41;3.10;;;1.90;;
80245;SDS011;69558;39.208;-77.226;2023-07-24T00:29:07;2.97;;;1.55;;
80245;SDS011;69558;39.208;-77.226;2023-07-24T00:31:33;2.95;;;1.30;;
80245;SDS011;69558;39.208;-77.226;2023-07-24T00:34:00;3.28;;;2.05;;
80245;SDS011;69558;39.208;-77.226;2023-07-24T00:36:26;3.20;;;1.95;;
80245;SDS011;69558;39.208;-77.226;2023-07-24T00:38:53;2.50;;;1.30;;
80245;SDS011;69558;39.208;-77.226;2023-07-24T00:41:21;2.97;;;1.58;;
80245;SDS011;69558;39.208;-77.226;2023-07-24T00:43:47;2.83;;;1.30;;
80245;SDS011;69558;39.208;-77.226;2023-07-24T00:46:13;3.17;;;2.00;;
80245;SDS011;69558;39.208;-77.226;2023-07-24T00:48:39;3.15;;;1.55;;
80245;SDS011;69558;39.208;-77.226;2023-07-24T00:51:05;2.70;;;1.40;;
80245;SDS011;69558;39.208;-77.226;2023-07-24T00:53:32;2.75;;;1.33;;
80245;SDS011;69558;39.208;-77.226;2023-07-24T00:55:58;3.15;;;1.85;;
80245;SDS011;69558;39.208;-77.226;2023-07-24T00:58:25;3.60;;;2.13;;
80245;SDS011;69558;39.208;-77.226;2023-07-24T01:00:52;3.53;;;1.50;;
80245;SDS011;69558;39.208;-77.226;2023-07-24T01:03:18;4.22;;;2.47;;
80245;SDS011;69558;39.208;-77.226;2023-07-24T01:05:47;4.03;;;2.00;;
80245;SDS011;69558;39.208;-77.226;2023-07-24T01:08:13;3.60;;;1.75;;
80245;SDS011;69558;39.208;-77.226;2023-07-24T01:10:40;3.55;;;1.98;;
80245;SDS011;69558;39.208;-77.226;2023-07-24T01:13:08;3.20;;;1.40;;
80245;SDS011;69558;39.208;-77.226;2023-07-24T01:18:40;3.65;;;1.70;;
80245;SDS011;69558;39.208;-77.226;2023-07-24T01:21:09;3.45;;;1.83;;
80245;SDS011;69558;39.208;-77.226;2023-07-24T01:26:22;3.33;;;1.63;;
80245;SDS011;69558;39.208;-77.226;2023-07-24T01:28:51;2.78;;;1.30;;
80245;SDS011;69558;39.208;-77.226;2023-07-24T01:31:18;3.33;;;1.77;;
80245;SDS011;69558;39.208;-77.226;2023-07-24T01:33:45;4.30;;;2.50;;
80245;SDS011;69558;39.208;-77.226;2023-07-24T01:36:12;2.92;;;1.60;;
80245;SDS011;69558;39.208;-77.226;2023-07-24T01:38:40;2.97;;;1.65;;
80245;SDS011;69558;39.208;-77.226;2023-07-24T01:41:07;2.97;;;1.60;;
80245;SDS011;69558;39.208;-77.226;2023-07-24T01:43:33;2.70;;;1.52;;
80245;SDS011;69558;39.208;-77.226;2023-07-24T01:46:00;3.30;;;1.80;;
80245;SDS011;69558;39.208;-77.226;2023-07-24T01:48:26;3.63;;;1.67;;
80245;SDS011;69558;39.208;-77.226;2023-07-24T01:50:52;3.25;;;1.92;;
80245;SDS011;69558;39.208;-77.226;2023-07-24T01:53:18;3.50;;;1.50;;
80245;SDS011;69558;39.208;-77.226;2023-07-24T01:55:46;3.53;;;2.20;;
80245;SDS011;69558;39.208;-77.226;2023-07-24T01:58:12;3.33;;;1.67;;
80245;SDS011;69558;39.208;-77.226;2023-07-24T02:00:38;3.78;;;2.65;;
80245;SDS011;69558;39.208;-77.226;2023-07-24T02:03:04;4.07;;;1.85;;
80245;SDS011;69558;39.208;-77.226;2023-07-24T02:05:30;3.58;;;1.70;;
80245;SDS011;69558;39.208;-77.226;2023-07-24T02:07:57;3.95;;;2.50;;
80245;SDS011;69558;39.208;-77.226;2023-07-24T02:10:23;4.53;;;2.15;;
80245;SDS011;69558;39.208;-77.226;2023-07-24T02:12:49;4.53;;;2.17;;
80245;SDS011;69558;39.208;-77.226;2023-07-24T02:15:16;3.90;;;2.42;;
80245;SDS011;69558;39.208;-77.226;2023-07-24T02:17:42;3.63;;;2.10;;
80245;SDS011;69558;39.208;-77.226;2023-07-24T02:20:08;3.70;;;2.17;;
80245;SDS011;69558;39.208;-77.226;2023-07-24T02:22:35;3.67;;;2.47;;
80245;SDS011;69558;39.208;-77.226;2023-07-24T02:25:01;3.60;;;2.05;;
80245;SDS011;69558;39.208;-77.226;2023-07-24T02:27:28;3.10;;;1.70;;
80245;SDS011;69558;39.208;-77.226;2023-07-24T02:29:57;3.72;;;2.38;;
80245;SDS011;69558;39.208;-77.226;2023-07-24T02:32:24;3.78;;;2.08;;
80245;SDS011;69558;39.208;-77.226;2023-07-24T02:34:50;3.47;;;1.50;;
80245;SDS011;69558;39.208;-77.226;2023-07-24T02:37:17;4.22;;;2.63;;
80245;SDS011;69558;39.208;-77.226;2023-07-24T02:39:44;3.65;;;2.10;;
80245;SDS011;69558;39.208;-77.226;2023-07-24T02:42:10;4.38;;;2.80;;
80245;SDS011;69558;39.208;-77.226;2023-07-24T02:44:37;3.83;;;2.50;;
80245;SDS011;69558;39.208;-77.226;2023-07-24T02:47:03;3.58;;;2.00;;
80245;SDS011;69558;39.208;-77.226;2023-07-24T02:49:29;3.95;;;2.35;;
80245;SDS011;69558;39.208;-77.226;2023-07-24T02:51:56;3.65;;;2.60;;
80245;SDS011;69558;39.208;-77.226;2023-07-24T02:54:21;3.75;;;1.83;;
80245;SDS011;69558;39.208;-77.226;2023-07-24T02:56:47;4.05;;;2.22;;
80245;SDS011;69558;39.208;-77.226;2023-07-24T02:59:13;3.95;;;2.30;;
80245;SDS011;69558;39.208;-77.226;2023-07-24T03:01:39;3.40;;;2.17;;
80245;SDS011;69558;39.208;-77.226;2023-07-24T03:04:05;3.95;;;2.22;;
80245;SDS011;69558;39.208;-77.226;2023-07-24T03:06:32;4.70;;;2.85;;
80245;SDS011;69558;39.208;-77.226;2023-07-24T03:08:58;4.70;;;2.53;;
80245;SDS011;69558;39.208;-77.226;2023-07-24T03:11:24;3.47;;;1.92;;
80245;SDS011;69558;39.208;-77.226;2023-07-24T03:13:51;4.05;;;2.25;;
80245;SDS011;69558;39.208;-77.226;2023-07-24T03:16:17;4.07;;;2.20;;
80245;SDS011;69558;39.208;-77.226;2023-07-24T03:18:45;3.60;;;1.90;;
80245;SDS011;69558;39.208;-77.226;2023-07-24T03:21:11;3.80;;;2.67;;
80245;SDS011;69558;39.208;-77.226;2023-07-24T03:23:37;4.40;;;2.17;;
80245;SDS011;69558;39.208;-77.226;2023-07-24T03:26:03;3.75;;;2.10;;
80245;SDS011;69558;39.208;-77.226;2023-07-24T03:28:29;5.10;;;2.63;;
80245;SDS011;69558;39.208;-77.226;2023-07-24T03:30:55;4.13;;;2.15;;
80245;SDS011;69558;39.208;-77.226;2023-07-24T03:33:21;3.97;;;2.33;;
80245;SDS011;69558;39.208;-77.226;2023-07-24T03:35:48;4.57;;;2.47;;
80245;SDS011;69558;39.208;-77.226;2023-07-24T03:38:13;3.63;;;2.00;;
80245;SDS011;69558;39.208;-77.226;2023-07-24T03:40:40;4.40;;;2.53;;
80245;SDS011;69558;39.208;-77.226;2023-07-24T03:43:06;4.43;;;2.88;;
80245;SDS011;69558;39.208;-77.226;2023-07-24T03:45:32;4.20;;;2.10;;
80245;SDS011;69558;39.208;-77.226;2023-07-24T03:47:59;4.60;;;2.90;;
80245;SDS011;69558;39.208;-77.226;2023-07-24T03:50:25;3.95;;;2.10;;
80245;SDS011;69558;39.208;-77.226;2023-07-24T03:52:51;5.38;;;3.33;;
80245;SDS011;69558;39.208;-77.226;2023-07-24T03:55:17;4.50;;;2.92;;
80245;SDS011;69558;39.208;-77.226;2023-07-24T03:57:43;4.13;;;2.80;;
80245;SDS011;69558;39.208;-77.226;2023-07-24T04:00:09;4.10;;;2.47;;
80245;SDS011;69558;39.208;-77.226;2023-07-24T04:02:36;4.50;;;2.78;;
80245;SDS011;69558;39.208;-77.226;2023-07-24T04:05:02;4.13;;;2.28;;
80245;SDS011;69558;39.208;-77.226;2023-07-24T04:07:29;5.53;;;2.58;;
80245;SDS011;69558;39.208;-77.226;2023-07-24T04:09:54;4.55;;;2.58;;
80245;SDS011;69558;39.208;-77.226;2023-07-24T04:12:21;4.88;;;2.90;;
80245;SDS011;69558;39.208;-77.226;2023-07-24T04:14:47;4.18;;;2.95;;
80245;SDS011;69558;39.208;-77.226;2023-07-24T04:17:14;4.97;;;2.70;;
80245;SDS011;69558;39.208;-77.226;2023-07-24T04:19:41;4.80;;;2.85;;
80245;SDS011;69558;39.208;-77.226;2023-07-24T04:22:07;5.47;;;3.55;;
80245;SDS011;69558;39.208;-77.226;2023-07-24T04:24:33;4.75;;;3.10;;
80245;SDS011;69558;39.208;-77.226;2023-07-24T04:26:59;6.18;;;3.63;;
80245;SDS011;69558;39.208;-77.226;2023-07-24T04:29:25;4.65;;;2.80;;
80245;SDS011;69558;39.208;-77.226;2023-07-24T04:31:52;4.43;;;2.83;;
80245;SDS011;69558;39.208;-77.226;2023-07-24T04:34:20;5.28;;;3.30;;
80245;SDS011;69558;39.208;-77.226;2023-07-24T04:36:46;5.05;;;3.08;;
80245;SDS011;69558;39.208;-77.226;2023-07-24T04:39:13;4.90;;;3.80;;
80245;SDS011;69558;39.208;-77.226;2023-07-24T04:41:39;4.80;;;3.13;;
80245;SDS011;69558;39.208;-77.226;2023-07-24T04:44:05;4.68;;;3.00;;
80245;SDS011;69558;39.208;-77.226;2023-07-24T04:46:31;4.97;;;2.88;;
80245;SDS011;69558;39.208;-77.226;2023-07-24T04:48:57;5.60;;;3.83;;
80245;SDS011;69558;39.208;-77.226;2023-07-24T04:51:23;5.40;;;2.78;;
80245;SDS011;69558;39.208;-77.226;2023-07-24T04:53:49;4.63;;;2.70;;
80245;SDS011;69558;39.208;-77.226;2023-07-24T04:56:16;5.32;;;2.75;;
80245;SDS011;69558;39.208;-77.226;2023-07-24T04:58:42;5.18;;;2.85;;
80245;SDS011;69558;39.208;-77.226;2023-07-24T05:01:09;4.18;;;2.47;;
80245;SDS011;69558;39.208;-77.226;2023-07-24T05:03:36;4.40;;;2.70;;
80245;SDS011;69558;39.208;-77.226;2023-07-24T05:06:02;5.35;;;3.50;;
80245;SDS011;69558;39.208;-77.226;2023-07-24T05:08:28;5.47;;;3.22;;
80245;SDS011;69558;39.208;-77.226;2023-07-24T05:10:54;4.85;;;3.20;;
80245;SDS011;69558;39.208;-77.226;2023-07-24T05:13:22;4.10;;;2.30;;
80245;SDS011;69558;39.208;-77.226;2023-07-24T05:15:48;4.50;;;2.65;;
80245;SDS011;69558;39.208;-77.226;2023-07-24T05:18:14;5.90;;;3.08;;
80245;SDS011;69558;39.208;-77.226;2023-07-24T05:20:47;5.32;;;2.95;;
80245;SDS011;69558;39.208;-77.226;2023-07-24T05:23:16;6.05;;;3.03;;
80245;SDS011;69558;39.208;-77.226;2023-07-24T05:25:42;4.70;;;2.78;;
80245;SDS011;69558;39.208;-77.226;2023-07-24T05:28:09;4.90;;;2.88;;
80245;SDS011;69558;39.208;-77.226;2023-07-24T05:30:35;5.00;;;3.28;;
80245;SDS011;69558;39.208;-77.226;2023-07-24T05:33:01;4.72;;;3.08;;
80245;SDS011;69558;39.208;-77.226;2023-07-24T05:35:27;4.18;;;2.40;;
80245;SDS011;69558;39.208;-77.226;2023-07-24T05:37:53;4.70;;;2.70;;
80245;SDS011;69558;39.208;-77.226;2023-07-24T05:40:20;4.65;;;2.70;;
80245;SDS011;69558;39.208;-77.226;2023-07-24T05:42:47;5.03;;;3.53;;
80245;SDS011;69558;39.208;-77.226;2023-07-24T05:45:13;4.72;;;2.83;;
80245;SDS011;69558;39.208;-77.226;2023-07-24T05:47:43;4.97;;;3.30;;
80245;SDS011;69558;39.208;-77.226;2023-07-24T05:50:09;4.72;;;2.55;;
80245;SDS011;69558;39.208;-77.226;2023-07-24T05:52:35;5.53;;;2.67;;
80245;SDS011;69558;39.208;-77.226;2023-07-24T05:55:01;4.75;;;3.40;;
80245;SDS011;69558;39.208;-77.226;2023-07-24T05:57:28;4.40;;;2.65;;
80245;SDS011;69558;39.208;-77.226;2023-07-24T05:59:54;4.82;;;3.53;;
80245;SDS011;69558;39.208;-77.226;2023-07-24T06:02:21;4.78;;;2.90;;
80245;SDS011;69558;39.208;-77.226;2023-07-24T06:04:47;5.18;;;3.13;;
80245;SDS011;69558;39.208;-77.226;2023-07-24T06:07:13;5.38;;;3.10;;
80245;SDS011;69558;39.208;-77.226;2023-07-24T06:09:39;4.43;;;2.35;;
80245;SDS011;69558;39.208;-77.226;2023-07-24T06:12:05;6.13;;;3.05;;
80245;SDS011;69558;39.208;-77.226;2023-07-24T06:14:32;4.70;;;2.42;;
80245;SDS011;69558;39.208;-77.226;2023-07-24T06:16:58;5.00;;;2.30;;
80245;SDS011;69558;39.208;-77.226;2023-07-24T06:19:23;4.38;;;2.50;;
80245;SDS011;69558;39.208;-77.226;2023-07-24T06:21:49;4.90;;;3.15;;
80245;SDS011;69558;39.208;-77.226;2023-07-24T06:24:17;3.80;;;2.28;;
80245;SDS011;69558;39.208;-77.226;2023-07-24T06:26:44;4.70;;;3.33;;
80245;SDS011;69558;39.208;-77.226;2023-07-24T06:29:10;5.35;;;3.05;;
80245;SDS011;69558;39.208;-77.226;2023-07-24T06:31:37;4.75;;;2.25;;
80245;SDS011;69558;39.208;-77.226;2023-07-24T06:34:03;3.90;;;2.47;;
80245;SDS011;69558;39.208;-77.226;2023-07-24T06:36:29;4.82;;;3.13;;
80245;SDS011;69558;39.208;-77.226;2023-07-24T06:38:55;4.97;;;2.67;;
80245;SDS011;69558;39.208;-77.226;2023-07-24T06:41:21;4.00;;;2.70;;
80245;SDS011;69558;39.208;-77.226;2023-07-24T06:43:48;4.45;;;2.53;;
80245;SDS011;69558;39.208;-77.226;2023-07-24T06:46:15;4.47;;;2.20;;
80245;SDS011;69558;39.208;-77.226;2023-07-24T06:48:41;3.75;;;2.03;;
80245;SDS011;69558;39.208;-77.226;2023-07-24T06:51:07;4.65;;;2.95;;
80245;SDS011;69558;39.208;-77.226;2023-07-24T06:53:33;4.00;;;2.45;;
80245;SDS011;69558;39.208;-77.226;2023-07-24T06:55:59;3.88;;;2.13;;
80245;SDS011;69558;39.208;-77.226;2023-07-24T06:58:25;4.45;;;2.33;;
80245;SDS011;69558;39.208;-77.226;2023-07-24T07:00:51;4.65;;;3.25;;
80245;SDS011;69558;39.208;-77.226;2023-07-24T07:03:17;4.45;;;2.78;;
80245;SDS011;69558;39.208;-77.226;2023-07-24T07:05:43;4.00;;;2.10;;
80245;SDS011;69558;39.208;-77.226;2023-07-24T07:08:09;5.57;;;2.90;;
80245;SDS011;69558;39.208;-77.226;2023-07-24T07:10:35;4.72;;;2.47;;
80245;SDS011;69558;39.208;-77.226;2023-07-24T07:13:01;3.80;;;1.90;;
80245;SDS011;69558;39.208;-77.226;2023-07-24T07:15:29;4.55;;;3.03;;
80245;SDS011;69558;39.208;-77.226;2023-07-24T07:17:55;5.07;;;2.80;;
80245;SDS011;69558;39.208;-77.226;2023-07-24T07:20:21;4.22;;;2.00;;
80245;SDS011;69558;39.208;-77.226;2023-07-24T07:22:48;3.85;;;2.55;;
80245;SDS011;69558;39.208;-77.226;2023-07-24T07:25:15;4.32;;;2.60;;
80245;SDS011;69558;39.208;-77.226;2023-07-24T07:27:41;3.78;;;2.00;;
80245;SDS011;69558;39.208;-77.226;2023-07-24T07:30:07;3.85;;;2.10;;
80245;SDS011;69558;39.208;-77.226;2023-07-24T07:32:33;3.90;;;2.38;;
80245;SDS011;69558;39.208;-77.226;2023-07-24T07:34:59;4.15;;;2.70;;
80245;SDS011;69558;39.208;-77.226;2023-07-24T07:37:26;3.92;;;2.33;;
80245;SDS011;69558;39.208;-77.226;2023-07-24T07:39:51;3.70;;;2.20;;
80245;SDS011;69558;39.208;-77.226;2023-07-24T07:42:17;3.53;;;2.08;;
80245;SDS011;69558;39.208;-77.226;2023-07-24T07:44:43;3.75;;;2.10;;
80245;SDS011;69558;39.208;-77.226;2023-07-24T07:47:10;4.18;;;2.78;;
80245;SDS011;69558;39.208;-77.226;2023-07-24T07:49:36;4.22;;;2.58;;
80245;SDS011;69558;39.208;-77.226;2023-07-24T07:52:01;4.50;;;2.47;;
80245;SDS011;69558;39.208;-77.226;2023-07-24T07:54:27;3.97;;;2.55;;
80245;SDS011;69558;39.208;-77.226;2023-07-24T07:56:53;4.60;;;2.50;;
80245;SDS011;69558;39.208;-77.226;2023-07-24T07:59:21;4.30;;;2.85;;
80245;SDS011;69558;39.208;-77.226;2023-07-24T08:01:47;4.50;;;2.20;;
80245;SDS011;69558;39.208;-77.226;2023-07-24T08:04:13;3.90;;;2.20;;
80245;SDS011;69558;39.208;-77.226;2023-07-24T08:06:39;3.63;;;1.98;;
80245;SDS011;69558;39.208;-77.226;2023-07-24T08:09:05;3.92;;;2.50;;
80245;SDS011;69558;39.208;-77.226;2023-07-24T08:11:31;3.85;;;2.20;;
80245;SDS011;69558;39.208;-77.226;2023-07-24T08:13:57;4.38;;;2.72;;
80245;SDS011;69558;39.208;-77.226;2023-07-24T08:16:23;4.20;;;2.65;;
80245;SDS011;69558;39.208;-77.226;2023-07-24T08:18:49;4.65;;;2.80;;
80245;SDS011;69558;39.208;-77.226;2023-07-24T08:21:16;4.10;;;2.08;;
80245;SDS011;69558;39.208;-77.226;2023-07-24T08:23:42;3.70;;;2.13;;
80245;SDS011;69558;39.208;-77.226;2023-07-24T08:26:08;4.35;;;2.25;;
80245;SDS011;69558;39.208;-77.226;2023-07-24T08:28:34;3.80;;;2.55;;
80245;SDS011;69558;39.208;-77.226;2023-07-24T08:31:07;3.60;;;1.95;;
80245;SDS011;69558;39.208;-77.226;2023-07-24T08:33:33;4.45;;;2.30;;
80245;SDS011;69558;39.208;-77.226;2023-07-24T08:36:00;4.25;;;2.75;;
80245;SDS011;69558;39.208;-77.226;2023-07-24T08:38:27;3.80;;;2.00;;
80245;SDS011;69558;39.208;-77.226;2023-07-24T08:41:02;3.88;;;1.98;;
80245;SDS011;69558;39.208;-77.226;2023-07-24T08:43:34;3.80;;;2.28;;
80245;SDS011;69558;39.208;-77.226;2023-07-24T08:46:01;4.57;;;2.53;;
80245;SDS011;69558;39.208;-77.226;2023-07-24T08:48:30;6.82;;;1.98;;
80245;SDS011;69558;39.208;-77.226;2023-07-24T08:51:14;3.63;;;1.92;;
80245;SDS011;69558;39.208;-77.226;2023-07-24T08:53:44;3.10;;;1.80;;
80245;SDS011;69558;39.208;-77.226;2023-07-24T08:56:11;4.13;;;2.53;;
80245;SDS011;69558;39.208;-77.226;2023-07-24T08:58:38;4.30;;;2.63;;
80245;SDS011;69558;39.208;-77.226;2023-07-24T09:01:07;4.05;;;2.30;;
80245;SDS011;69558;39.208;-77.226;2023-07-24T09:03:34;3.83;;;2.15;;
80245;SDS011;69558;39.208;-77.226;2023-07-24T09:06:01;5.38;;;2.78;;
80245;SDS011;69558;39.208;-77.226;2023-07-24T09:08:37;4.13;;;2.42;;
80245;SDS011;69558;39.208;-77.226;2023-07-24T09:11:08;3.13;;;2.03;;
80245;SDS011;69558;39.208;-77.226;2023-07-24T09:13:35;3.97;;;2.22;;
80245;SDS011;69558;39.208;-77.226;2023-07-24T09:18:49;4.20;;;2.50;;
80245;SDS011;69558;39.208;-77.226;2023-07-24T09:21:28;4.20;;;2.20;;
80245;SDS011;69558;39.208;-77.226;2023-07-24T09:23:55;5.00;;;2.45;;
80245;SDS011;69558;39.208;-77.226;2023-07-24T09:26:22;4.05;;;2.53;;
80245;SDS011;69558;39.208;-77.226;2023-07-24T09:28:53;3.58;;;2.08;;
80245;SDS011;69558;39.208;-77.226;2023-07-24T09:31:20;3.90;;;2.17;;
80245;SDS011;69558;39.208;-77.226;2023-07-24T09:33:46;4.15;;;2.30;;
80245;SDS011;69558;39.208;-77.226;2023-07-24T09:36:13;4.00;;;2.42;;
80245;SDS011;69558;39.208;-77.226;2023-07-24T09:38:39;3.60;;;2.03;;
80245;SDS011;69558;39.208;-77.226;2023-07-24T09:41:05;4.90;;;1.90;;
80245;SDS011;69558;39.208;-77.226;2023-07-24T09:43:32;3.10;;;1.63;;
80245;SDS011;69558;39.208;-77.226;2023-07-24T09:46:01;3.80;;;2.03;;
80245;SDS011;69558;39.208;-77.226;2023-07-24T09:48:29;3.70;;;2.00;;
80245;SDS011;69558;39.208;-77.226;2023-07-24T09:50:57;3.88;;;2.30;;
80245;SDS011;69558;39.208;-77.226;2023-07-24T09:53:33;3.75;;;1.90;;
80245;SDS011;69558;39.208;-77.226;2023-07-24T09:56:06;3.88;;;2.20;;
80245;SDS011;69558;39.208;-77.226;2023-07-24T09:58:35;3.75;;;2.20;;
80245;SDS011;69558;39.208;-77.226;2023-07-24T10:01:03;3.17;;;1.55;;
80245;SDS011;69558;39.208;-77.226;2023-07-24T10:03:33;3.67;;;2.40;;
80245;SDS011;69558;39.208;-77.226;2023-07-24T10:06:08;4.70;;;2.80;;
80245;SDS011;69558;39.208;-77.226;2023-07-24T10:08:40;3.83;;;2.53;;
80245;SDS011;69558;39.208;-77.226;2023-07-24T10:11:07;3.88;;;2.03;;
80245;SDS011;69558;39.208;-77.226;2023-07-24T10:13:38;3.85;;;2.08;;
80245;SDS011;69558;39.208;-77.226;2023-07-24T10:16:05;4.18;;;2.10;;
80245;SDS011;69558;39.208;-77.226;2023-07-24T10:18:33;3.67;;;1.88;;
80245;SDS011;69558;39.208;-77.226;2023-07-24T10:21:09;3.85;;;2.38;;
80245;SDS011;69558;39.208;-77.226;2023-07-24T10:23:37;3.88;;;2.45;;
80245;SDS011;69558;39.208;-77.226;2023-07-24T10:26:06;3.83;;;2.00;;
80245;SDS011;69558;39.208;-77.226;2023-07-24T10:28:34;3.90;;;2.33;;
80245;SDS011;69558;39.208;-77.226;2023-07-24T10:31:22;4.13;;;2.53;;
80245;SDS011;69558;39.208;-77.226;2023-07-24T10:33:52;3.60;;;1.80;;
80245;SDS011;69558;39.208;-77.226;2023-07-24T10:36:18;2.88;;;1.77;;
80245;SDS011;69558;39.208;-77.226;2023-07-24T10:38:53;3.80;;;2.17;;
80245;SDS011;69558;39.208;-77.226;2023-07-24T10:41:20;4.68;;;2.60;;
80245;SDS011;69558;39.208;-77.226;2023-07-24T10:43:51;2.97;;;2.25;;
80245;SDS011;69558;39.208;-77.226;2023-07-24T10:46:19;3.70;;;2.22;;
80245;SDS011;69558;39.208;-77.226;2023-07-24T10:48:47;3.42;;;1.60;;
80245;SDS011;69558;39.208;-77.226;2023-07-24T10:51:14;3.28;;;1.67;;
80245;SDS011;69558;39.208;-77.226;2023-07-24T10:53:43;3.28;;;1.67;;
80245;SDS011;69558;39.208;-77.226;2023-07-24T10:56:12;3.40;;;1.67;;
80245;SDS011;69558;39.208;-77.226;2023-07-24T10:58:38;5.15;;;2.28;;
80245;SDS011;69558;39.208;-77.226;2023-07-24T11:01:05;3.15;;;1.85;;
80245;SDS011;69558;39.208;-77.226;2023-07-24T11:03:32;3.38;;;1.92;;
80245;SDS011;69558;39.208;-77.226;2023-07-24T11:06:01;2.95;;;1.92;;
80245;SDS011;69558;39.208;-77.226;2023-07-24T11:08:28;3.33;;;1.90;;
80245;SDS011;69558;39.208;-77.226;2023-07-24T11:10:55;3.55;;;1.77;;
80245;SDS011;69558;39.208;-77.226;2023-07-24T11:15:53;2.80;;;1.65;;
80245;SDS011;69558;39.208;-77.226;2023-07-24T11:18:21;2.58;;;1.30;;
80245;SDS011;69558;39.208;-77.226;2023-07-24T11:20:53;3.40;;;2.20;;
80245;SDS011;69558;39.208;-77.226;2023-07-24T11:23:22;3.35;;;1.67;;
80245;SDS011;69558;39.208;-77.226;2023-07-24T11:25:52;3.80;;;2.20;;
80245;SDS011;69558;39.208;-77.226;2023-07-24T11:28:20;3.50;;;2.20;;
80245;SDS011;69558;39.208;-77.226;2023-07-24T11:30:47;2.55;;;1.30;;
80245;SDS011;69558;39.208;-77.226;2023-07-24T11:35:41;2.88;;;1.95;;
80245;SDS011;69558;39.208;-77.226;2023-07-24T11:38:08;3.40;;;1.70;;
80245;SDS011;69558;39.208;-77.226;2023-07-24T11:40:37;3.20;;;1.38;;
80245;SDS011;69558;39.208;-77.226;2023-07-24T11:43:20;2.80;;;1.38;;
80245;SDS011;69558;39.208;-77.226;2023-07-24T11:45:52;3.45;;;2.10;;
80245;SDS011;69558;39.208;-77.226;2023-07-24T11:48:19;3.10;;;2.15;;
80245;SDS011;69558;39.208;-77.226;2023-07-24T11:50:53;2.85;;;1.40;;
80245;SDS011;69558;39.208;-77.226;2023-07-24T11:55:51;4.10;;;2.30;;
80245;SDS011;69558;39.208;-77.226;2023-07-24T11:58:18;3.25;;;1.48;;
80245;SDS011;69558;39.208;-77.226;2023-07-24T12:00:46;3.33;;;1.98;;
80245;SDS011;69558;39.208;-77.226;2023-07-24T12:03:14;3.08;;;1.98;;
80245;SDS011;69558;39.208;-77.226;2023-07-24T12:05:46;3.20;;;1.45;;
80245;SDS011;69558;39.208;-77.226;2023-07-24T12:08:13;3.08;;;1.88;;
80245;SDS011;69558;39.208;-77.226;2023-07-24T12:10:40;2.78;;;1.52;;
80245;SDS011;69558;39.208;-77.226;2023-07-24T12:13:06;3.50;;;2.05;;
80245;SDS011;69558;39.208;-77.226;2023-07-24T12:15:34;3.30;;;2.13;;
80245;SDS011;69558;39.208;-77.226;2023-07-24T12:18:01;2.80;;;1.33;;
80245;SDS011;69558;39.208;-77.226;2023-07-24T12:20:28;3.65;;;2.33;;
80245;SDS011;69558;39.208;-77.226;2023-07-24T12:22:54;3.22;;;1.90;;
80245;SDS011;69558;39.208;-77.226;2023-07-24T12:25:21;3.50;;;2.10;;
80245;SDS011;69558;39.208;-77.226;2023-07-24T12:27:48;3.42;;;1.80;;
80245;SDS011;69558;39.208;-77.226;2023-07-24T12:30:14;3.05;;;1.83;;
80245;SDS011;69558;39.208;-77.226;2023-07-24T12:32:40;2.38;;;1.52;;
80245;SDS011;69558;39.208;-77.226;2023-07-24T12:35:10;2.30;;;1.20;;
80245;SDS011;69558;39.208;-77.226;2023-07-24T12:37:37;2.50;;;1.67;;
80245;SDS011;69558;39.208;-77.226;2023-07-24T12:40:05;2.45;;;1.10;;
80245;SDS011;69558;39.208;-77.226;2023-07-24T12:42:31;2.25;;;1.65;;
80245;SDS011;69558;39.208;-77.226;2023-07-24T12:44:57;2.25;;;1.30;;
80245;SDS011;69558;39.208;-77.226;2023-07-24T12:47:24;3.05;;;1.83;;
80245;SDS011;69558;39.208;-77.226;2023-07-24T12:49:50;2.67;;;1.67;;
80245;SDS011;69558;39.208;-77.226;2023-07-24T12:52:17;2.95;;;1.80;;
80245;SDS011;69558;39.208;-77.226;2023-07-24T12:54:44;2.58;;;1.48;;
80245;SDS011;69558;39.208;-77.226;2023-07-24T12:57:09;2.25;;;1.08;;
80245;SDS011;69558;39.208;-77.226;2023-07-24T12:59:36;3.25;;;1.90;;
80245;SDS011;69558;39.208;-77.226;2023-07-24T13:02:02;2.85;;;2.00;;
80245;SDS011;69558;39.208;-77.226;2023-07-24T13:04:28;2.67;;;1.70;;
80245;SDS011;69558;39.208;-77.226;2023-07-24T13:06:53;2.33;;;1.20;;
80245;SDS011;69558;39.208;-77.226;2023-07-24T13:09:21;2.75;;;1.80;;
80245;SDS011;69558;39.208;-77.226;2023-07-24T13:11:49;2.95;;;1.88;;
80245;SDS011;69558;39.208;-77.226;2023-07-24T13:14:17;2.47;;;1.55;;
80245;SDS011;69558;39.208;-77.226;2023-07-24T13:16:43;2.83;;;1.70;;
80245;SDS011;69558;39.208;-77.226;2023-07-24T13:19:10;2.65;;;1.15;;
80245;SDS011;69558;39.208;-77.226;2023-07-24T13:21:36;2.30;;;1.52;;
80245;SDS011;69558;39.208;-77.226;2023-07-24T13:24:01;2.17;;;1.08;;
80245;SDS011;69558;39.208;-77.226;2023-07-24T13:26:28;2.65;;;1.70;;
80245;SDS011;69558;39.208;-77.226;2023-07-24T13:28:54;2.88;;;1.65;;
80245;SDS011;69558;39.208;-77.226;2023-07-24T13:31:21;2.30;;;1.70;;
80245;SDS011;69558;39.208;-77.226;2023-07-24T13:33:47;2.63;;;1.58;;
80245;SDS011;69558;39.208;-77.226;2023-07-24T13:36:13;2.45;;;1.30;;
80245;SDS011;69558;39.208;-77.226;2023-07-24T13:38:40;2.75;;;1.50;;
80245;SDS011;69558;39.208;-77.226;2023-07-24T13:43:36;2.40;;;1.73;;
80245;SDS011;69558;39.208;-77.226;2023-07-24T13:46:02;2.30;;;1.25;;
80245;SDS011;69558;39.208;-77.226;2023-07-24T13:48:28;2.45;;;1.55;;
80245;SDS011;69558;39.208;-77.226;2023-07-24T13:50:55;2.88;;;1.70;;
80245;SDS011;69558;39.208;-77.226;2023-07-24T13:53:21;2.47;;;1.67;;
80245;SDS011;69558;39.208;-77.226;2023-07-24T13:55:48;2.15;;;1.00;;
80245;SDS011;69558;39.208;-77.226;2023-07-24T13:58:14;2.42;;;1.20;;
80245;SDS011;69558;39.208;-77.226;2023-07-24T14:00:40;2.55;;;1.50;;
80245;SDS011;69558;39.208;-77.226;2023-07-24T14:03:06;2.25;;;1.48;;
80245;SDS011;69558;39.208;-77.226;2023-07-24T14:05:32;2.38;;;1.50;;
80245;SDS011;69558;39.208;-77.226;2023-07-24T14:08:04;2.55;;;1.10;;
80245;SDS011;69558;39.208;-77.226;2023-07-24T14:10:30;2.17;;;1.13;;
80245;SDS011;69558;39.208;-77.226;2023-07-24T14:12:57;2.30;;;1.50;;
80245;SDS011;69558;39.208;-77.226;2023-07-24T14:15:23;2.13;;;1.33;;
80245;SDS011;69558;39.208;-77.226;2023-07-24T14:17:50;1.67;;;0.80;;
80245;SDS011;69558;39.208;-77.226;2023-07-24T14:20:16;2.65;;;1.50;;
80245;SDS011;69558;39.208;-77.226;2023-07-24T14:22:42;1.55;;;0.82;;
80245;SDS011;69558;39.208;-77.226;2023-07-24T14:25:08;2.13;;;1.30;;
80245;SDS011;69558;39.208;-77.226;2023-07-24T14:27:33;3.63;;;2.28;;
80245;SDS011;69558;39.208;-77.226;2023-07-24T14:30:00;1.80;;;0.90;;
80245;SDS011;69558;39.208;-77.226;2023-07-24T14:32:26;2.10;;;1.30;;
80245;SDS011;69558;39.208;-77.226;2023-07-24T14:34:52;2.20;;;1.40;;
80245;SDS011;69558;39.208;-77.226;2023-07-24T14:37:18;1.88;;;0.88;;
80245;SDS011;69558;39.208;-77.226;2023-07-24T14:39:46;2.38;;;1.20;;